createdAt,value
2022-10-17T00:02:09.919Z,97592.66
2022-10-17T00:04:36.687Z,97596.13
2022-10-17T00:07:03.311Z,97580.41
2022-10-17T00:09:29.978Z,97622.34
2022-10-17T00:11:56.869Z,97629.81
2022-10-17T00:14:23.436Z,97624.41
2022-10-17T00:16:50.095Z,97634.59
2022-10-17T00:19:16.730Z,97605.31
2022-10-17T00:21:43.398Z,97628.66
2022-10-17T00:24:10.010Z,97615.50
2022-10-17T00:26:36.668Z,97656.84
2022-10-17T00:29:03.356Z,97644.78
2022-10-17T00:31:30.021Z,97626.19
2022-10-17T00:33:56.681Z,97628.56
2022-10-17T00:36:27.464Z,97636.91
2022-10-17T00:38:56.507Z,97641.72
2022-10-17T00:41:24.825Z,97650.34
2022-10-17T00:43:56.845Z,97636.91
2022-10-17T00:46:24.988Z,97633.72
2022-10-17T00:48:52.743Z,97623.53
2022-10-17T00:51:20.428Z,97644.53
2022-10-17T00:53:47.051Z,97627.31
2022-10-17T00:56:13.902Z,97632.50
2022-10-17T00:58:40.507Z,97636.00
2022-10-17T01:01:07.110Z,97648.19
2022-10-17T01:03:33.801Z,97634.44
2022-10-17T01:06:00.583Z,97632.59
2022-10-17T01:08:27.242Z,97663.88
2022-10-17T01:10:59.833Z,97641.50
2022-10-17T01:13:48.693Z,97649.09
2022-10-17T01:16:29.650Z,97641.44
2022-10-17T01:19:03.785Z,97658.47
2022-10-17T01:21:54.100Z,97629.91
2022-10-17T01:24:49.382Z,97633.75
2022-10-17T01:27:37.227Z,97665.88
2022-10-17T01:30:29.538Z,97638.38
2022-10-17T01:33:08.572Z,97626.81
2022-10-17T01:35:41.754Z,97654.59
2022-10-17T01:38:14.165Z,97652.16
2022-10-17T01:40:51.096Z,97634.09
2022-10-17T01:43:23.659Z,97649.47
2022-10-17T01:45:59.221Z,97631.16
2022-10-17T01:48:28.157Z,97622.28
2022-10-17T01:51:01.477Z,97632.00
2022-10-17T01:53:31.865Z,97672.44
2022-10-17T01:56:00.312Z,97627.44
2022-10-17T01:58:32.710Z,97633.09
2022-10-17T02:01:04.896Z,97642.00
2022-10-17T02:03:31.633Z,97644.66
2022-10-17T02:05:58.258Z,97654.13
2022-10-17T02:08:26.338Z,97637.44
2022-10-17T02:11:02.893Z,97633.41
2022-10-17T02:13:54.332Z,97637.97
2022-10-17T02:16:55.149Z,97628.81
2022-10-17T02:19:46.573Z,97618.31
2022-10-17T02:22:17.661Z,97616.19
2022-10-17T02:24:48.717Z,97592.47
2022-10-17T02:27:21.158Z,97622.66
2022-10-17T02:29:49.202Z,97615.91
2022-10-17T02:32:46.690Z,97617.81
2022-10-17T02:35:16.186Z,97642.31
2022-10-17T02:37:43.580Z,97614.06
2022-10-17T02:40:10.751Z,97611.91
2022-10-17T02:42:37.367Z,97614.31
2022-10-17T02:45:04.884Z,97646.63
2022-10-17T02:47:36.720Z,97627.25
2022-10-17T02:50:03.510Z,97640.72
2022-10-17T02:52:39.047Z,97625.94
2022-10-17T02:55:08.453Z,97612.44
2022-10-17T02:58:00.306Z,97619.19
2022-10-17T03:00:27.014Z,97622.44
2022-10-17T03:02:53.877Z,97625.66
2022-10-17T03:05:25.421Z,97652.59
2022-10-17T03:07:52.262Z,97632.13
2022-10-17T03:10:19.596Z,97607.09
2022-10-17T03:12:46.240Z,97648.56
2022-10-17T03:15:13.404Z,97657.69
2022-10-17T03:17:40.091Z,97620.03
2022-10-17T03:20:07.278Z,97649.63
2022-10-17T03:22:33.917Z,97660.66
2022-10-17T03:25:00.532Z,97663.09
2022-10-17T03:27:27.270Z,97667.66
2022-10-17T03:29:54.234Z,97684.91
2022-10-17T03:32:22.104Z,97652.34
2022-10-17T03:34:48.743Z,97661.22
2022-10-17T03:37:15.418Z,97677.38
2022-10-17T03:39:42.031Z,97665.78
2022-10-17T03:42:08.820Z,97669.00
2022-10-17T03:44:35.454Z,97662.31
2022-10-17T03:47:02.098Z,97670.66
2022-10-17T03:49:28.686Z,97665.25
2022-10-17T03:51:55.277Z,97681.94
2022-10-17T03:54:22.001Z,97666.31
2022-10-17T03:56:48.659Z,97665.53
2022-10-17T03:59:15.377Z,97672.25
2022-10-17T04:01:42.161Z,97664.44
2022-10-17T04:04:08.921Z,97691.63
2022-10-17T04:06:35.870Z,97668.47
2022-10-17T04:09:02.629Z,97676.81
2022-10-17T04:11:29.313Z,97683.56
2022-10-17T04:13:56.508Z,97672.81
2022-10-17T04:16:23.673Z,97702.69
2022-10-17T04:19:16.632Z,97690.81
2022-10-17T04:21:43.273Z,97703.19
2022-10-17T04:24:10.768Z,97699.16
2022-10-17T04:26:37.419Z,97688.41
2022-10-17T04:29:03.984Z,97688.66
2022-10-17T04:31:30.584Z,97673.06
2022-10-17T04:33:57.247Z,97691.91
2022-10-17T04:36:24.023Z,97701.06
2022-10-17T04:38:50.856Z,97692.44
2022-10-17T04:41:18.008Z,97716.41
2022-10-17T04:43:47.000Z,97704.03
2022-10-17T04:46:16.876Z,97711.28
2022-10-17T04:48:43.561Z,97689.22
2022-10-17T04:51:14.678Z,97721.53
2022-10-17T04:53:42.038Z,97711.81
2022-10-17T04:56:13.691Z,97708.59
2022-10-17T04:58:40.686Z,97696.19
2022-10-17T05:01:12.844Z,97715.56
2022-10-17T05:03:40.005Z,97723.16
2022-10-17T05:06:07.637Z,97708.31
2022-10-17T05:08:34.916Z,97710.47
2022-10-17T05:11:01.793Z,97716.66
2022-10-17T05:13:28.402Z,97723.13
2022-10-17T05:15:59.027Z,97703.47
2022-10-17T05:18:26.043Z,97717.19
2022-10-17T05:20:52.704Z,97712.09
2022-10-17T05:23:19.300Z,97704.81
2022-10-17T05:25:45.893Z,97719.91
2022-10-17T05:28:12.497Z,97716.13
2022-10-17T05:30:39.113Z,97709.94
2022-10-17T05:33:05.722Z,97729.06
2022-10-17T05:35:32.817Z,97720.97
2022-10-17T05:37:59.397Z,97730.38
2022-10-17T05:40:25.997Z,97735.25
2022-10-17T05:42:52.769Z,97733.34
2022-10-17T05:45:20.157Z,97741.97
2022-10-17T05:47:46.777Z,97739.28
2022-10-17T05:50:13.407Z,97749.25
2022-10-17T05:52:40.555Z,97780.22
2022-10-17T05:55:09.070Z,97768.94
2022-10-17T05:57:35.745Z,97740.91
2022-10-17T06:00:02.359Z,97746.56
2022-10-17T06:02:29.329Z,97775.91
2022-10-17T06:04:56.205Z,97740.38
2022-10-17T06:07:22.863Z,97763.53
2022-10-17T06:09:49.489Z,97749.78
2022-10-17T06:12:16.260Z,97760.03
2022-10-17T06:14:42.837Z,97754.91
2022-10-17T06:17:14.860Z,97762.72
2022-10-17T06:19:42.552Z,97756.53
2022-10-17T06:22:09.151Z,97786.97
2022-10-17T06:24:35.805Z,97760.03
2022-10-17T06:27:02.432Z,97764.59
2022-10-17T06:29:29.000Z,97753.00
2022-10-17T06:31:55.628Z,97759.78
2022-10-17T06:34:22.543Z,97781.34
2022-10-17T06:36:49.258Z,97788.63
2022-10-17T06:39:16.254Z,97779.19
2022-10-17T06:41:42.939Z,97785.38
2022-10-17T06:44:09.507Z,97797.47
2022-10-17T06:46:36.238Z,97774.03
2022-10-17T06:49:02.984Z,97807.19
2022-10-17T06:51:29.673Z,97809.59
2022-10-17T06:53:57.602Z,97789.94
2022-10-17T06:56:24.330Z,97793.16
2022-10-17T06:58:50.994Z,97792.63
2022-10-17T07:01:17.571Z,97813.63
2022-10-17T07:03:44.285Z,97816.28
2022-10-17T07:06:10.894Z,97799.22
2022-10-17T07:08:37.714Z,97807.03
2022-10-17T07:11:17.705Z,97813.50
2022-10-17T07:13:44.673Z,97802.66
2022-10-17T07:16:11.480Z,97799.91
2022-10-17T07:18:38.150Z,97803.41
2022-10-17T07:21:05.221Z,97807.69
2022-10-17T07:23:31.931Z,97817.88
2022-10-17T07:26:01.725Z,97824.28
2022-10-17T07:28:28.430Z,97818.28
2022-10-17T07:30:55.429Z,97822.50
2022-10-17T07:33:22.042Z,97809.50
2022-10-17T07:35:48.638Z,97819.47
2022-10-17T07:38:15.318Z,97831.81
2022-10-17T07:40:41.968Z,97812.06
2022-10-17T07:43:09.346Z,97809.28
2022-10-17T07:45:36.101Z,97825.13
2022-10-17T07:48:02.691Z,97825.91
2022-10-17T07:50:29.645Z,97830.72
2022-10-17T07:52:56.462Z,97821.19
2022-10-17T07:55:23.478Z,97817.88
2022-10-17T07:57:50.100Z,97833.72
2022-10-17T08:00:16.772Z,97819.75
2022-10-17T08:02:43.452Z,97837.59
2022-10-17T08:05:10.324Z,97831.34
2022-10-17T08:07:38.129Z,97841.47
2022-10-17T08:10:05.353Z,97826.69
2022-10-17T08:12:32.630Z,97838.72
2022-10-17T08:15:02.457Z,97847.97
2022-10-17T08:17:30.088Z,97846.84
2022-10-17T08:19:56.793Z,97862.44
2022-10-17T08:22:27.382Z,97840.00
2022-10-17T08:24:54.269Z,97815.53
2022-10-17T08:27:20.904Z,97824.28
2022-10-17T08:29:47.504Z,97835.81
2022-10-17T08:32:14.167Z,97833.47
2022-10-17T08:34:40.813Z,97849.41
2022-10-17T08:37:07.501Z,97822.50
2022-10-17T08:39:34.191Z,97853.63
2022-10-17T08:42:18.804Z,97852.44
2022-10-17T08:45:12.615Z,97838.06
2022-10-17T08:47:45.039Z,97847.94
2022-10-17T08:50:15.021Z,97833.00
2022-10-17T08:52:48.047Z,97836.31
2022-10-17T08:55:29.373Z,97828.38
2022-10-17T08:57:56.037Z,97815.38
2022-10-17T09:00:22.678Z,97825.09
2022-10-17T09:03:31.528Z,97823.69
2022-10-17T09:06:25.975Z,97841.81
2022-10-17T09:09:03.273Z,97834.34
2022-10-17T09:11:48.917Z,97851.25
2022-10-17T09:14:37.059Z,97841.16
2022-10-17T09:17:04.985Z,97830.59
2022-10-17T09:20:14.983Z,97839.56
2022-10-17T09:22:50.042Z,97830.72
2022-10-17T09:25:17.718Z,97847.56
2022-10-17T09:28:01.599Z,97829.22
2022-10-17T09:30:44.695Z,97821.38
2022-10-17T09:33:34.406Z,97836.22
2022-10-17T09:36:04.230Z,97838.16
2022-10-17T09:38:37.866Z,97847.09
2022-10-17T09:41:15.775Z,97853.50
2022-10-17T09:43:54.752Z,97842.97
2022-10-17T09:46:33.136Z,97832.25
2022-10-17T09:49:14.781Z,97849.06
2022-10-17T09:51:43.889Z,97867.63
2022-10-17T09:54:58.909Z,97867.75
2022-10-17T09:57:25.543Z,97835.81
2022-10-17T10:00:00.266Z,97861.47
2022-10-17T10:02:29.126Z,97833.59
2022-10-17T10:05:05.593Z,97820.94
2022-10-17T10:07:37.807Z,97857.03
2022-10-17T10:10:06.492Z,97859.84
2022-10-17T10:12:38.165Z,97850.63
2022-10-17T10:15:32.301Z,97846.03
2022-10-17T10:17:58.962Z,97830.03
2022-10-17T10:20:28.580Z,97853.88
2022-10-17T10:23:12.614Z,97848.59
2022-10-17T10:25:39.224Z,97834.72
2022-10-17T10:28:10.299Z,97856.75
2022-10-17T10:30:39.182Z,97839.38
2022-10-17T10:33:06.736Z,97838.03
2022-10-17T10:35:36.680Z,97852.13
2022-10-17T10:38:10.921Z,97843.72
2022-10-17T10:40:47.456Z,97826.47
2022-10-17T10:43:22.026Z,97826.00
2022-10-17T10:45:49.218Z,97835.97
2022-10-17T10:48:23.779Z,97847.00
2022-10-17T10:51:03.543Z,97839.81
2022-10-17T10:53:38.354Z,97834.72
2022-10-17T10:56:08.057Z,97840.28
2022-10-17T10:58:40.304Z,97823.75
2022-10-17T11:01:20.489Z,97816.03
2022-10-17T11:03:58.855Z,97819.16
2022-10-17T11:06:29.409Z,97824.97
2022-10-17T11:09:41.215Z,97824.53
2022-10-17T11:12:12.765Z,97830.22
2022-10-17T11:14:56.101Z,97829.47
2022-10-17T11:17:28.861Z,97800.13
2022-10-17T11:20:23.755Z,97825.72
2022-10-17T11:22:54.814Z,97797.53
2022-10-17T11:25:32.106Z,97820.16
2022-10-17T11:28:02.309Z,97820.53
2022-10-17T11:30:41.418Z,97780.16
2022-10-17T11:33:08.747Z,97798.81
2022-10-17T11:35:40.700Z,97800.63
2022-10-17T11:38:15.319Z,97818.09
2022-10-17T11:40:48.366Z,97830.41
2022-10-17T11:43:16.769Z,97787.09
2022-10-17T11:45:46.246Z,97796.03
2022-10-17T11:48:17.220Z,97812.34
2022-10-17T11:53:46.258Z,97817.00
2022-10-17T11:56:12.881Z,97808.56
2022-10-17T11:58:48.931Z,97805.44
2022-10-17T12:01:51.183Z,97805.22
2022-10-17T12:04:49.457Z,97803.22
2022-10-17T12:07:35.733Z,97795.56
2022-10-17T12:10:28.496Z,97781.78
2022-10-17T12:12:56.091Z,97786.16
2022-10-17T12:15:22.548Z,97776.84
2022-10-17T12:18:08.948Z,97780.50
2022-10-17T12:20:36.101Z,97787.06
2022-10-17T12:23:11.661Z,97792.47
2022-10-17T12:25:52.044Z,97790.28
2022-10-17T12:28:29.301Z,97793.22
2022-10-17T12:31:18.657Z,97804.69
2022-10-17T12:33:49.057Z,97765.81
2022-10-17T12:36:18.554Z,97771.94
2022-10-17T12:38:49.224Z,97771.38
2022-10-17T12:41:16.991Z,97776.38
2022-10-17T12:43:45.027Z,97781.38
2022-10-17T12:46:11.746Z,97768.59
2022-10-17T12:48:38.246Z,97772.63
2022-10-17T12:51:37.409Z,97761.41
2022-10-17T12:54:14.948Z,97750.50
2022-10-17T12:56:48.086Z,97771.81
2022-10-17T12:59:24.770Z,97767.78
2022-10-17T13:01:53.508Z,97765.97
2022-10-17T13:04:20.245Z,97773.66
2022-10-17T13:06:48.628Z,97763.56
2022-10-17T13:09:38.053Z,97776.03
2022-10-17T13:12:05.743Z,97772.59
2022-10-17T13:14:33.585Z,97755.50
2022-10-17T13:17:05.018Z,97758.69
2022-10-17T13:19:42.156Z,97761.00
2022-10-17T13:22:21.586Z,97762.78
2022-10-17T13:24:48.787Z,97750.53
2022-10-17T13:27:24.554Z,97764.72
2022-10-17T13:29:51.203Z,97767.38
2022-10-17T13:32:17.968Z,97746.22
2022-10-17T13:34:44.621Z,97778.47
2022-10-17T13:37:13.857Z,97779.84
2022-10-17T13:39:55.197Z,97789.94
2022-10-17T13:42:31.541Z,97770.94
2022-10-17T13:44:58.509Z,97773.34
2022-10-17T13:47:27.204Z,97774.88
2022-10-17T13:49:55.518Z,97776.72
2022-10-17T13:52:26.719Z,97773.03
2022-10-17T13:54:53.642Z,97775.31
2022-10-17T13:57:28.107Z,97775.47
2022-10-17T14:00:06.018Z,97760.38
2022-10-17T14:02:36.197Z,97773.88
2022-10-17T14:05:20.042Z,97767.50
2022-10-17T14:10:41.311Z,97778.69
2022-10-17T14:13:08.482Z,97786.22
2022-10-17T14:15:36.113Z,97762.09
2022-10-17T14:18:08.361Z,97797.50
2022-10-17T14:23:38.353Z,97803.97
2022-10-17T14:26:12.593Z,97793.00
2022-10-17T14:28:39.890Z,97795.59
2022-10-17T14:31:17.056Z,97789.97
2022-10-17T14:33:50.663Z,97783.72
2022-10-17T14:36:18.461Z,97788.84
2022-10-17T14:38:50.250Z,97800.47
2022-10-17T14:41:47.830Z,97781.41
2022-10-17T14:44:53.685Z,97799.56
2022-10-17T14:47:42.263Z,97799.56
2022-10-17T14:50:11.843Z,97789.38
2022-10-17T14:52:38.719Z,97791.00
2022-10-17T14:55:24.792Z,97815.28
2022-10-17T14:57:51.585Z,97810.16
2022-10-17T15:00:19.821Z,97815.28
2022-10-17T15:02:46.722Z,97824.88
2022-10-17T15:05:19.332Z,97812.75
2022-10-17T15:07:46.975Z,97809.69
2022-10-17T15:10:30.489Z,97832.47
2022-10-17T15:12:59.315Z,97810.81
2022-10-17T15:15:28.323Z,97811.75
2022-10-17T15:17:54.982Z,97829.53
2022-10-17T15:20:21.768Z,97825.94
2022-10-17T15:22:48.386Z,97846.03
2022-10-17T15:25:15.180Z,97831.22
2022-10-17T15:27:41.888Z,97822.63
2022-10-17T15:30:21.621Z,97824.97
2022-10-17T15:32:49.419Z,97814.19
2022-10-17T15:35:16.335Z,97827.97
2022-10-17T15:37:43.306Z,97835.94
2022-10-17T15:40:21.348Z,97836.44
2022-10-17T15:42:48.206Z,97835.59
2022-10-17T15:45:18.036Z,97852.53
2022-10-17T15:47:56.308Z,97843.66
2022-10-17T15:50:22.905Z,97853.22
2022-10-17T15:52:49.937Z,97826.09
2022-10-17T15:55:16.898Z,97816.97
2022-10-17T15:57:44.984Z,97854.75
2022-10-17T16:00:20.085Z,97841.59
2022-10-17T16:02:46.884Z,97834.69
2022-10-17T16:05:16.141Z,97855.25
2022-10-17T16:07:45.781Z,97859.09
2022-10-17T16:10:13.825Z,97855.19
2022-10-17T16:12:40.630Z,97854.53
2022-10-17T16:15:15.234Z,97871.16
2022-10-17T16:17:41.844Z,97870.75
2022-10-17T16:20:08.779Z,97855.50
2022-10-17T16:22:36.328Z,97873.22
2022-10-17T16:25:06.822Z,97845.59
2022-10-17T16:27:33.689Z,97890.97
2022-10-17T16:30:00.341Z,97875.69
2022-10-17T16:32:27.420Z,97881.84
2022-10-17T16:34:54.153Z,97889.41
2022-10-17T16:37:22.411Z,97880.78
2022-10-17T16:39:49.223Z,97892.44
2022-10-17T16:42:15.870Z,97868.28
2022-10-17T16:44:42.483Z,97902.72
2022-10-17T16:47:09.193Z,97868.91
2022-10-17T16:49:35.823Z,97871.78
2022-10-17T16:52:02.441Z,97874.03
2022-10-17T16:54:29.085Z,97918.31
2022-10-17T16:56:55.761Z,97922.47
2022-10-17T16:59:22.643Z,97881.72
2022-10-17T17:01:49.322Z,97899.81
2022-10-17T17:04:16.005Z,97884.13
2022-10-17T17:06:42.729Z,97902.31
2022-10-17T17:09:09.426Z,97910.69
2022-10-17T17:11:36.126Z,97871.16
2022-10-17T17:14:02.954Z,97911.72
2022-10-17T17:16:30.484Z,97883.75
2022-10-17T17:19:02.138Z,97881.44
2022-10-17T17:21:28.876Z,97883.66
2022-10-17T17:23:55.658Z,97885.56
2022-10-17T17:26:22.612Z,97911.19
2022-10-17T17:28:49.764Z,97910.59
2022-10-17T17:31:20.155Z,97902.91
2022-10-17T17:33:46.936Z,97879.09
2022-10-17T17:36:17.919Z,97917.50
2022-10-17T17:38:44.658Z,97905.19
2022-10-17T17:41:15.581Z,97924.16
2022-10-17T17:43:46.146Z,97905.47
2022-10-17T17:46:13.400Z,97896.84
2022-10-17T17:48:40.641Z,97878.13
2022-10-17T17:51:08.208Z,97905.19
2022-10-17T17:53:35.205Z,97910.31
2022-10-17T17:56:07.723Z,97906.81
2022-10-17T17:58:34.874Z,97899.69
2022-10-17T18:01:02.021Z,97929.28
2022-10-17T18:03:29.140Z,97907.88
2022-10-17T18:05:55.784Z,97900.75
2022-10-17T18:08:22.470Z,97934.69
2022-10-17T18:10:49.665Z,97909.78
2022-10-17T18:13:16.393Z,97912.13
2022-10-17T18:15:43.666Z,97885.81
2022-10-17T18:18:10.312Z,97907.38
2022-10-17T18:20:42.802Z,97909.53
2022-10-17T18:23:10.307Z,97907.53
2022-10-17T18:25:37.012Z,97902.47
2022-10-17T18:28:03.912Z,97899.31
2022-10-17T18:30:33.718Z,97907.19
2022-10-17T18:33:01.256Z,97919.69
2022-10-17T18:38:18.035Z,97913.00
2022-10-17T18:40:47.286Z,97922.63
2022-10-17T18:43:16.627Z,97908.41
2022-10-17T18:45:43.297Z,97924.16
2022-10-17T18:48:09.891Z,97924.44
2022-10-17T18:50:37.102Z,97897.59
2022-10-17T18:53:03.734Z,97921.31
2022-10-17T18:55:30.358Z,97931.66
2022-10-17T18:57:57.001Z,97896.00
2022-10-17T19:00:23.679Z,97901.72
2022-10-17T19:02:50.625Z,97926.38
2022-10-17T19:05:17.364Z,97929.59
2022-10-17T19:07:43.989Z,97928.22
2022-10-17T19:10:10.827Z,97940.72
2022-10-17T19:12:37.466Z,97960.00
2022-10-17T19:15:04.302Z,97934.03
2022-10-17T19:17:31.483Z,97955.38
2022-10-17T19:19:58.294Z,97941.00
2022-10-17T19:22:24.907Z,97923.25
2022-10-17T19:24:51.985Z,97958.19
2022-10-17T19:27:18.560Z,97955.53
2022-10-17T19:29:45.325Z,97957.53
2022-10-17T19:32:15.824Z,97944.53
2022-10-17T19:34:44.759Z,97950.78
2022-10-17T19:37:11.402Z,97936.78
2022-10-17T19:39:38.066Z,97954.13
2022-10-17T19:42:06.872Z,97917.94
2022-10-17T19:44:34.561Z,97943.94
2022-10-17T19:47:01.218Z,97960.69
2022-10-17T19:49:27.991Z,97945.53
2022-10-17T19:51:54.604Z,97930.16
2022-10-17T19:54:21.283Z,97937.78
2022-10-17T19:56:47.925Z,97938.31
2022-10-17T19:59:15.862Z,97909.91
2022-10-17T20:01:43.095Z,97932.91
2022-10-17T20:04:10.078Z,97955.91
2022-10-17T20:06:36.923Z,97944.34
2022-10-17T20:09:04.595Z,97940.56
2022-10-17T20:11:31.197Z,97907.66
2022-10-17T20:13:59.693Z,97973.03
2022-10-17T20:16:28.357Z,97951.41
2022-10-17T20:18:56.070Z,97956.31
2022-10-17T20:21:26.613Z,97976.78
2022-10-17T20:23:53.854Z,97952.47
2022-10-17T20:26:37.187Z,97986.78
2022-10-17T20:29:05.445Z,97982.72
2022-10-17T20:31:32.212Z,97870.13
2022-10-17T20:33:59.284Z,97985.19
2022-10-17T20:36:25.946Z,97980.91
2022-10-17T20:38:56.712Z,98007.59
2022-10-17T20:41:23.389Z,97986.31
2022-10-17T20:43:51.007Z,98014.44
2022-10-17T20:46:35.025Z,98002.81
2022-10-17T20:49:02.876Z,97979.84
2022-10-17T20:51:29.545Z,97997.94
2022-10-17T20:56:25.396Z,98000.88
2022-10-17T20:58:53.509Z,97986.59
2022-10-17T21:01:20.223Z,97978.53
2022-10-17T21:03:46.936Z,97979.09
2022-10-17T21:06:13.651Z,97976.44
2022-10-17T21:08:40.437Z,97991.53
2022-10-17T21:11:15.962Z,97982.91
2022-10-17T21:13:42.676Z,97996.69
2022-10-17T21:16:18.788Z,97977.25
2022-10-17T21:18:45.406Z,97986.44
2022-10-17T21:21:17.888Z,98008.31
2022-10-17T21:23:45.667Z,97971.59
2022-10-17T21:26:12.351Z,97975.41
2022-10-17T21:28:39.982Z,97967.84
2022-10-17T21:31:17.652Z,97988.91
2022-10-17T21:33:46.442Z,97975.66
2022-10-17T21:36:13.074Z,97991.31
2022-10-17T21:38:39.973Z,97995.94
2022-10-17T21:41:07.535Z,97968.09
2022-10-17T21:43:34.696Z,97996.47
2022-10-17T21:46:03.002Z,97983.50
2022-10-17T21:48:29.720Z,97983.78
2022-10-17T21:51:00.601Z,97982.72
2022-10-17T21:53:27.742Z,97990.53
2022-10-17T21:55:54.348Z,97978.13
2022-10-17T21:58:21.749Z,97984.06
2022-10-17T22:00:48.320Z,97970.56
2022-10-17T22:03:14.972Z,97990.78
2022-10-17T22:05:41.639Z,97974.88
2022-10-17T22:08:08.252Z,97991.63
2022-10-17T22:10:38.304Z,97958.19
2022-10-17T22:13:05.046Z,98000.50
2022-10-17T22:15:31.690Z,97970.56
2022-10-17T22:17:58.545Z,97981.09
2022-10-17T22:20:25.100Z,97981.88
2022-10-17T22:22:51.723Z,97957.09
2022-10-17T22:25:18.349Z,97971.13
2022-10-17T22:27:44.914Z,97986.19
2022-10-17T22:30:11.807Z,97958.16
2022-10-17T22:32:38.391Z,97963.56
2022-10-17T22:35:05.348Z,97978.13
2022-10-17T22:37:32.323Z,97981.91
2022-10-17T22:39:59.298Z,97976.50
2022-10-17T22:42:25.931Z,97971.63
2022-10-17T22:44:52.584Z,97971.63
2022-10-17T22:47:19.224Z,97985.13
2022-10-17T22:49:45.925Z,97969.75
2022-10-17T22:52:12.536Z,97979.72
2022-10-17T22:54:39.220Z,97976.47
2022-10-17T22:57:05.833Z,97961.66
2022-10-17T22:59:33.305Z,97967.84
2022-10-17T23:01:59.928Z,97951.16
2022-10-17T23:04:26.582Z,97973.53
2022-10-17T23:06:53.146Z,97956.81
2022-10-17T23:09:20.897Z,97962.19
2022-10-17T23:11:47.635Z,97970.56
2022-10-17T23:14:14.305Z,97987.84
2022-10-17T23:16:40.886Z,97973.81
2022-10-17T23:19:07.562Z,97975.16
2022-10-17T23:21:34.173Z,97962.47
2022-10-17T23:24:00.912Z,97994.28
2022-10-17T23:26:27.521Z,97966.53
2022-10-17T23:28:54.515Z,97942.25
2022-10-17T23:31:21.669Z,97956.28
2022-10-17T23:33:48.943Z,97957.63
2022-10-17T23:36:16.665Z,97969.50
2022-10-17T23:38:43.919Z,97973.00
2022-10-17T23:41:10.565Z,97971.41
2022-10-17T23:43:37.275Z,97962.47
2022-10-17T23:46:04.317Z,97948.19
2022-10-17T23:48:30.970Z,97953.84
2022-10-17T23:50:57.626Z,97941.16
2022-10-17T23:53:24.414Z,97940.63
2022-10-17T23:55:51.015Z,97957.91
2022-10-17T23:58:17.636Z,97828.19
